Nearby METAR Reports

 

KISP - Islip, New York, USA
Distance from station: SW 4mi, 6km
Updated: Thu, 12/5/2019 3:56 pm EST
Overcast
Overcast
 Wind from WNW
Wind: WNW 15 mph , 24 km/h, Gust: 32 mph , 52 km/h
Temperature: 39°F , 4°C
Wind Chill: 31°F , -1°C
Dew Point: 21°F , -6°C
Humidity: 48%
Barometer: 29.84 inHg , 1010.5 hPa
Clouds: Overcast
Visibility: 10 miles , 16 km
Cloud details: Partly cloudy 4500 ft
Overcast 7000 ft
2019/12/05 20:56 KISP 052056Z 29013G28KT 10SM SCT045 OVC070 04/M06 A2984 RMK AO2 PK WND 29028/2048 SLP104 T00441056 53035
KHWV - Shirley, New York, USA
Distance from station: E 10mi, 16km
Updated: Thu, 12/5/2019 3:56 pm EST
Overcast
Overcast
 Wind from W
Wind: W 17 mph , 28 km/h, Gust: 28 mph , 44 km/h
Temperature: 39°F , 4°C
Wind Chill: 30°F , -1°C
Dew Point: 21°F , -6°C
Humidity: 48%
Barometer: 29.83 inHg , 1010.2 hPa
Clouds: Overcast
Visibility: 10 miles , 16 km
Cloud details: Few Clouds 4900 ft
Overcast 6500 ft
2019/12/05 20:56 KHWV 052056Z AUTO 28015G24KT 10SM FEW049 OVC065 04/M06 A2983 RMK AO2 SLP102 T00441061 53034 TSNO
 
KFRG - Farmingdale, New York, USA
Distance from station: WSW 20mi, 33km
Updated: Thu, 12/5/2019 3:53 pm EST
Overcast
Overcast
 Wind from WNW
Wind: WNW 9 mph , 15 km/h, Gust: 18 mph , 30 km/h
Temperature: 39°F , 4°C
Wind Chill: 33°F , 1°C
Dew Point: 19°F , -7°C
Humidity: 45%
Barometer: 29.85 inHg , 1010.8 hPa
Clouds: Overcast
Visibility: 10 miles , 16 km
Cloud details: Partly cloudy 6000 ft
Overcast 7500 ft
2019/12/05 20:53 KFRG 052053Z 30008G16KT 10SM SCT060 OVC075 04/M07 A2985 RMK AO2 PK WND 29027/2021 SLP109 T00441067 53034
KBDR - Bridgeport, Connecticut, USA
Distance from station: N 23mi, 37km
Updated: Thu, 12/5/2019 3:52 pm EST
Overcast
Overcast
 Wind from WNW
Wind: WNW 18 mph , 30 km/h, Gust: 30 mph , 48 km/h
Temperature: 41°F , 5°C
Wind Chill: 32°F , 0°C
Dew Point: 21°F , -6°C
Humidity: 45%
Barometer: 29.82 inHg , 1009.8 hPa
Clouds: Overcast
Visibility: 10 miles , 16 km
Cloud details: Partly cloudy 6000 ft
Overcast 7500 ft
2019/12/05 20:52 KBDR 052052Z 30016G26KT 10SM SCT060 OVC075 05/M06 A2982 RMK AO2 PK WND 28026/2021 SLP096 T00501061 53027
 
KFOK - Westhampton Beac, New York, USA
Distance from station: E 23mi, 37km
Updated: Thu, 12/5/2019 3:53 pm EST
Overcast
Overcast
 Wind from WNW
Wind: WNW 12 mph , 19 km/h, Gust: 22 mph , 35 km/h
Temperature: 39°F , 4°C
Wind Chill: 32°F , 0°C
Dew Point: 19°F , -7°C
Humidity: 45%
Barometer: 29.82 inHg , 1009.8 hPa
Clouds: Overcast
Visibility: 10 miles , 16 km
Cloud details: Overcast 6000 ft
2019/12/05 20:53 KFOK 052053Z 29010G19KT 10SM OVC060 04/M07 A2982 RMK AO2 SLP100 T00441067 53033
KHVN - New Haven/Tweed, Connecticut, USA
Distance from station: NNE 31mi, 50km
Updated: Thu, 12/5/2019 3:53 pm EST
Mostly cloudy
Mostly cloudy
 Wind from NW
Wind: NW 12 mph , 19 km/h
Temperature: 43°F , 6°C
Wind Chill: 37°F , 3°C
Dew Point: 21°F , -6°C
Humidity: 42%
Barometer: 29.81 inHg , 1009.5 hPa
Clouds: Mostly cloudy
Visibility: 10 miles , 16 km
Cloud details: Partly cloudy 5500 ft
Mostly cloudy 7000 ft
2019/12/05 20:53 KHVN 052053Z 31010KT 10SM SCT055 BKN070 06/M06 A2981 RMK AO2 SLP093 T00611056 53027
 
KHPN - White Plains, New York, USA
Distance from station: WNW 37mi, 60km
Updated: Thu, 12/5/2019 3:56 pm EST
Light snow, Mostly cloudy
Light snow, Mostly cloudy
 Wind from WNW
Wind: WNW 13 mph , 20 km/h, Gust: 24 mph , 39 km/h
Temperature: 37°F , 3°C
Wind Chill: 29°F , -2°C
Dew Point: 23°F , -5°C
Humidity: 56%
Barometer: 29.82 inHg , 1009.8 hPa
Summary: Light Snow
Clouds: Mostly cloudy
Visibility: 9 miles , 14 km
Cloud details: Few Clouds 4300 ft
Mostly cloudy 5500 ft
Mostly cloudy 7000 ft
2019/12/05 20:56 KHPN 052056Z 29011G21KT 9SM -SN FEW043 BKN055 BKN070 03/M05 A2982 RMK AO2 SNB44 SLP105 P0000 60000 T00281050 53027
KJFK - Nyc/Jfk Arpt, New York, USA
Distance from station: WSW 40mi, 64km
Updated: Thu, 12/5/2019 3:51 pm EST
Mostly cloudy
Mostly cloudy
 Wind from WNW
Wind: WNW 24 mph , 39 km/h, Gust: 31 mph , 50 km/h
Temperature: 41°F , 5°C
Wind Chill: 31°F , -1°C
Dew Point: 25°F , -4°C
Humidity: 53%
Barometer: 29.88 inHg , 1011.9 hPa
Clouds: Mostly cloudy
Visibility: 10 miles , 16 km
Cloud details: Few Clouds 4600 ft
Mostly cloudy 6000 ft
Mostly cloudy 7500 ft
2019/12/05 20:51 KJFK 052051Z 29021G27KT 10SM FEW046 BKN060 BKN075 05/M04 A2988 RMK AO2 PK WND 29030/2040 SLP116 VCSH N T00501039 53031
 
KDXR - Danbury, Connecticut, USA
Distance from station: NNW 42mi, 68km
Updated: Thu, 12/5/2019 3:53 pm EST
Mostly cloudy
Mostly cloudy
 Wind from WNW
Wind: WNW 9 mph , 15 km/h, Gust: 26 mph , 43 km/h
Temperature: 37°F , 3°C
Wind Chill: 30°F , -1°C
Dew Point: 21°F , -6°C
Humidity: 52%
Barometer: 29.82 inHg , 1009.8 hPa
Clouds: Mostly cloudy
Visibility: 10 miles , 16 km
Cloud details: Mostly cloudy 7000 ft
2019/12/05 20:53 KDXR 052053Z 29008G23KT 10SM BKN070 03/M06 A2982 RMK AO2 SLP099 T00281061 53023
KHTO - East Hampton, New York, USA
Distance from station: E 43mi, 69km
Updated: Thu, 12/5/2019 4:15 pm EST
Partly cloudy
Partly cloudy
 Wind from WNW
Wind: WNW 8 mph , 13 km/h
Temperature: 37°F , 3°C
Wind Chill: 31°F , -1°C
Dew Point: 23°F , -5°C
Humidity: 56%
Barometer: 29.81 inHg , 1009.5 hPa
Clouds: Partly cloudy
Visibility: 10 miles , 16 km
Cloud details: Partly cloudy 6500 ft
2019/12/05 21:15 KHTO 052115Z AUTO 30007KT 10SM SCT065 03/M05 A2981 RMK AO2 T00321050
 
KOXC - Oxford/Waterbury, Connecticut, USA
Distance from station: N 43mi, 70km
Updated: Thu, 12/5/2019 3:51 pm EST
Overcast
Overcast
 Wind from WNW
Wind: WNW 7 mph , 11 km/h, Gust: 20 mph , 31 km/h
Temperature: 36°F , 2°C
Wind Chill: 30°F , -1°C
Dew Point: 21°F , -6°C
Humidity: 56%
Barometer: 29.78 inHg , 1008.5 hPa
Clouds: Overcast
Visibility: 10 miles , 16 km
Cloud details: Partly cloudy 4800 ft
Overcast 6000 ft
2019/12/05 20:51 KOXC 052051Z 29006G17KT 10SM SCT048 OVC060 02/M06 A2978 RMK AO2 SLP104 60000 T00171056 53023
KLGA - Nyc/La Guardia, New York, USA
Distance from station: W 44mi, 70km
Updated: Thu, 12/5/2019 3:51 pm EST
Mostly cloudy
Mostly cloudy
 Wind from W
Wind: W 21 mph , 33 km/h, Gust: 29 mph , 46 km/h
Temperature: 41°F , 5°C
Wind Chill: 32°F , 0°C
Dew Point: 21°F , -6°C
Humidity: 45%
Barometer: 29.86 inHg , 1011.2 hPa
Clouds: Mostly cloudy
Visibility: 10 miles , 16 km
Cloud details: Mostly cloudy 5000 ft
Mostly cloudy 6000 ft
Mostly cloudy 8000 ft
Mostly cloudy 15000 ft
2019/12/05 20:51 KLGA 052051Z 27018G25KT 10SM BKN050 BKN060 BKN080 BKN150 05/M06 A2986 RMK AO2 PK WND 30028/2007 SLP111 T00501056 53028
 
KSNC - Chester, Connecticut, USA
Distance from station: NE 47mi, 76km
Updated: Thu, 12/5/2019 4:35 pm EST
Overcast
Overcast
 Wind from WNW
Wind: WNW 6 mph , 9 km/h, Gust: 14 mph , 22 km/h
Temperature: 37°F , 3°C
Wind Chill: 32°F , 0°C
Dew Point: 19°F , -7°C
Humidity: 48%
Barometer: 29.80 inHg , 1009.1 hPa
Clouds: Overcast
Visibility: 10 miles , 16 km
Cloud details: Overcast 7000 ft
2019/12/05 21:35 KSNC 052135Z AUTO 29005G12KT 10SM OVC070 03/M07 A2980 RMK AO2
KMMK - Meriden, Connecticut, USA
Distance from station: NNE 48mi, 77km
Updated: Thu, 12/5/2019 3:53 pm EST
Mostly cloudy
Mostly cloudy
 Wind from NW
Wind: NW 7 mph , 11 km/h
Temperature: 37°F , 3°C
Wind Chill: 32°F , 0°C
Dew Point: 19°F , -7°C
Humidity: 48%
Barometer: 29.79 inHg , 1008.8 hPa
Clouds: Mostly cloudy
Visibility: 10 miles , 16 km
Cloud details: Few Clouds 6000 ft
Mostly cloudy 7000 ft
2019/12/05 20:53 KMMK 052053Z AUTO 31006KT 10SM FEW060 BKN070 03/M07 A2979 RMK AO2 SLP090 T00331067 53024
 
KNYC - Nyc/Central Park, New York, USA
Distance from station: W 48mi, 77km
Updated: Thu, 12/5/2019 3:51 pm EST
Mostly cloudy
Mostly cloudy
 Wind from WNW
Wind: WNW 9 mph , 15 km/h, Gust: 21 mph , 33 km/h
Temperature: 39°F , 4°C
Wind Chill: 33°F , 1°C
Dew Point: 25°F , -4°C
Humidity: 56%
Barometer: 29.88 inHg , 1011.9 hPa
Clouds: Mostly cloudy
Visibility: 10 miles , 16 km
Cloud details: Few Clouds 4600 ft
Partly cloudy 6000 ft
Mostly cloudy 7500 ft
2019/12/05 20:51 KNYC 052051Z AUTO 29008G18KT 10SM FEW046 SCT060 BKN075 04/M04 A2988 RMK AO2 SLP111 T00391044 53028